weather.gov     
National Weather Service

Terminal Aerodrome Forecast
NWS Homepage
This page is being discontinued on March 12, 2014.
The same data is available at this site. Please update your bookmarks.
Thank you, and we apologize for the inconvenience.
Please send an email to SR-SRH.Webmaster@noaa.gov with any concerns.


Current Version
Previous Version:    01  02  03  04  05  06  07  08  09  10  11  12  13  14  15  16  17  18  19  20  21  22  23  24  25  26  27  28  29  30  
   31  32  33  
[Printable]
625
FTUS43 KIND 221100
TAFLAF
TAF
KLAF 221125Z 2212/2312 12006KT P6SM VCSH SCT050 OVC080
     FM221600 13008KT P6SM VCSH OVC020
     FM221900 12010KT 4SM -RA BR SCT007 OVC015
     FM222300 13012KT 2SM -RA BR SCT004 OVC007
     FM230800 17011G17KT 4SM -RA BR OVC008
      AMD LTD TO CLD VIS AND WIND TIL 221400=


U.S. Dept. of Commerce
NOAA National Weather Service
1325 East West Highway
Silver Spring, MD 20910
E-mail: w-nws.webmaster@noaa.gov
Page last modified: May 16, 2007
NATIONAL WEATHER SERVICE: for Safety, for Work, for Fun - FOR LIFE